Home > Products > Valid Products > TAF

000
FTUS42 KTBW 280530
TAFFMY
TAF
KFMY 280530Z 2806/2906 07006KT P6SM FEW050
     FM281800 05004KT P6SM VCTS BKN035CB
     FM282000 32006KT P6SM VCTS BKN040CB
     FM290000 10005KT P6SM BKN045=



000
FTUS42 KTBW 280530
TAFTPA
TAF
KTPA 280530Z 2806/2906 VRB03KT P6SM FEW050
     FM281600 13006KT P6SM FEW030 FEW080
     FM281800 23005KT P6SM SCT045
     FM290200 02004KT P6SM FEW040 SCT100=



000
FTUS42 KTBW 280530
TAFPIE
TAF
KPIE 280530Z 2806/2906 09007KT P6SM FEW050
     FM281900 02004KT P6SM SCT040
     FM282300 30009KT P6SM FEW060 SCT200
     FM290400 05004KT P6SM FEW050 SCT070=



000
FTUS42 KTBW 280530
TAFSRQ
TAF
KSRQ 280530Z 2806/2906 10007KT P6SM FEW050
     FM281800 25006KT P6SM SCT040
     FM290300 03004KT P6SM BKN040
     FM290500 06004KT P6SM FEW040 SCT080=



000
FTUS42 KTBW 280530
TAFRSW
TAF
KRSW 280530Z 2806/2906 07005KT P6SM FEW050
     FM281800 07004KT P6SM VCTS BKN040CB
     FM282000 30006KT P6SM VCTS BKN040CB
     FM290000 13006KT P6SM BKN050=



000
FTUS42 KTBW 280303 AAA
TAFTPA
TAF AMD
KTPA 280303Z 2803/2824 09005KT P6SM SCT100
     FM280900 VRB04KT P6SM FEW015 SCT100
     FM281400 09006KT P6SM SCT020 SCT100
     FM281700 24007KT P6SM SCT035 SCT100
     FM282000 28008KT P6SM SCT050=



000
FTUS42 KTBW 271128
TAFFMY
TAF
KFMY 271128Z 2712/2812 06006KT P6SM SKC
     FM271500 08010KT P6SM FEW040
     FM272000 05010KT P6SM VCTS BKN040CB
     FM280200 08007KT P6SM SCT040 SCT100=



000
FTUS42 KTBW 271128
TAFTPA
TAF
KTPA 271128Z 2712/2812 07006KT P6SM SKC
     FM271400 09009KT P6SM FEW040
     FM271800 VRB04KT P6SM SCT050
     FM280200 07005KT P6SM FEW050
     FM280900 05004KT P6SM SCT025=



000
FTUS42 KTBW 271128
TAFRSW
TAF
KRSW 271128Z 2712/2812 05006KT P6SM SKC
     FM271500 09010KT P6SM FEW040
     FM272000 05010KT P6SM VCTS BKN040CB
     FM280200 08007KT P6SM SCT040 SCT100=



000
FTUS42 KTBW 271128
TAFSRQ
TAF
KSRQ 271128Z 2712/2812 07007KT P6SM SKC
     FM271400 09009KT P6SM FEW040
     FM271800 VRB04KT P6SM SCT050
     FM272100 29008KT P6SM VCTS SCT050CB
     FM280200 09010KT P6SM FEW040
     FM280600 08006KT P6SM SCT025=



000
FTUS42 KTBW 271128
TAFPIE
TAF
KPIE 271128Z 2712/2812 08006KT P6SM SKC
     FM271800 VRB04KT P6SM SCT050
     FM272100 35007KT P6SM SCT050
     FM280100 08007KT P6SM FEW050
     FM280900 07005KT P6SM SCT025=



    US Dept of Commerce
    National Oceanic and Atmospheric Administration
    National Weather Service
    1325 East West Highway
    Silver Spring, MD 20910
    Page Author: NWS Internet Services Team
Disclaimer
Information Quality
Credits
Glossary
Privacy Policy
Freedom of Information Act (FOIA)
About Us
Career Opportunities